createdAt,value
2023-03-22T00:04:36.997Z,31
2023-03-22T00:09:53.420Z,34
2023-03-22T00:15:09.863Z,33
2023-03-22T00:20:26.230Z,32
2023-03-22T00:25:43.308Z,37
2023-03-22T00:30:59.813Z,39
2023-03-22T00:36:16.110Z,36
2023-03-22T00:41:32.545Z,38
2023-03-22T00:46:48.897Z,38
2023-03-22T00:52:05.328Z,40
2023-03-22T00:57:23.219Z,33
2023-03-22T01:02:39.429Z,42
2023-03-22T01:07:55.801Z,33
2023-03-22T01:13:12.264Z,38
2023-03-22T01:18:28.613Z,33
2023-03-22T01:23:44.831Z,44
2023-03-22T01:29:01.216Z,45
2023-03-22T01:34:17.657Z,40
2023-03-22T01:39:34.066Z,41
2023-03-22T01:44:50.455Z,38
2023-03-22T01:50:06.861Z,37
2023-03-22T01:55:23.316Z,34
2023-03-22T02:00:39.970Z,30
2023-03-22T02:05:56.078Z,29
2023-03-22T02:11:12.533Z,36
2023-03-22T02:16:28.915Z,38
2023-03-22T02:21:45.303Z,29
2023-03-22T02:27:01.708Z,26
2023-03-22T02:32:18.099Z,25
2023-03-22T02:37:34.458Z,23
2023-03-22T02:42:50.621Z,25
2023-03-22T02:48:07.054Z,31
2023-03-22T02:53:23.439Z,32
2023-03-22T02:58:39.831Z,30
2023-03-22T03:03:56.214Z,30
2023-03-22T03:09:12.633Z,31
2023-03-22T03:14:29.034Z,25
2023-03-22T03:19:45.383Z,25
2023-03-22T03:25:01.816Z,27
2023-03-22T03:30:17.894Z,30
2023-03-22T03:35:34.299Z,28
2023-03-22T03:40:50.702Z,23
2023-03-22T03:46:07.149Z,26
2023-03-22T03:51:23.494Z,24
2023-03-22T03:56:40.368Z,29
2023-03-22T04:01:56.978Z,25
2023-03-22T04:07:13.325Z,26
2023-03-22T04:12:30.272Z,30
2023-03-22T04:17:46.689Z,28
2023-03-22T04:23:03.076Z,28
2023-03-22T04:28:19.438Z,30
2023-03-22T04:33:35.857Z,24
2023-03-22T04:38:51.976Z,28
2023-03-22T04:44:08.586Z,31
2023-03-22T04:49:24.990Z,31
2023-03-22T04:54:41.360Z,31
2023-03-22T04:59:57.762Z,38
2023-03-22T05:05:14.225Z,40
2023-03-22T05:10:31.374Z,34
2023-03-22T05:15:47.863Z,38
2023-03-22T05:21:04.780Z,36
2023-03-22T05:26:21.740Z,45
2023-03-22T05:31:38.049Z,62
2023-03-22T05:36:54.382Z,53
2023-03-22T05:42:11.420Z,54
2023-03-22T05:47:27.852Z,50
2023-03-22T05:52:44.253Z,36
2023-03-22T05:58:00.901Z,40
2023-03-22T06:03:17.745Z,52
2023-03-22T06:08:34.048Z,38
2023-03-22T06:13:50.481Z,38
2023-03-22T06:19:06.889Z,41
2023-03-22T06:24:24.242Z,50
2023-03-22T06:29:40.709Z,49
2023-03-22T06:34:57.142Z,43
2023-03-22T06:40:13.536Z,54
2023-03-22T06:45:29.954Z,35
2023-03-22T06:50:47.090Z,44
2023-03-22T06:56:03.375Z,45
2023-03-22T07:01:20.043Z,55
2023-03-22T07:06:36.397Z,49
2023-03-22T07:11:52.854Z,47
2023-03-22T07:17:09.272Z,45
2023-03-22T07:22:25.642Z,44
2023-03-22T07:27:42.107Z,41
2023-03-22T07:32:58.517Z,34
2023-03-22T07:38:14.885Z,34
2023-03-22T07:43:34.046Z,40
2023-03-22T07:48:48.124Z,31
2023-03-22T07:54:06.455Z,28
2023-03-22T07:59:20.891Z,29
2023-03-22T08:04:37.259Z,29
2023-03-22T08:09:53.634Z,26
2023-03-22T08:15:10.043Z,25
2023-03-22T08:20:26.853Z,30
2023-03-22T08:25:43.134Z,34
2023-03-22T08:30:59.502Z,33
2023-03-22T08:36:15.877Z,34
2023-03-22T08:41:32.317Z,32
2023-03-22T08:46:48.672Z,31
2023-03-22T08:52:05.054Z,31
2023-03-22T08:57:21.526Z,35
2023-03-22T09:02:37.659Z,41
2023-03-22T09:07:54.085Z,42
2023-03-22T09:13:10.678Z,45
2023-03-22T09:18:26.960Z,46
2023-03-22T09:23:43.444Z,41
2023-03-22T09:28:59.776Z,44
2023-03-22T09:34:16.170Z,45
2023-03-22T09:39:32.568Z,45
2023-03-22T09:44:48.934Z,44
2023-03-22T09:50:05.072Z,48
2023-03-22T09:55:21.720Z,48
2023-03-22T10:00:38.317Z,44
2023-03-22T10:05:54.514Z,44
2023-03-22T10:11:11.471Z,46
2023-03-22T10:16:28.182Z,39
2023-03-22T10:21:44.536Z,44
2023-03-22T10:27:00.836Z,44
2023-03-22T10:32:17.171Z,38
2023-03-22T10:37:34.076Z,36
2023-03-22T10:42:50.373Z,36
2023-03-22T10:48:06.721Z,34
2023-03-22T10:53:23.386Z,47
2023-03-22T10:58:39.664Z,42
2023-03-22T11:03:56.344Z,37
2023-03-22T11:09:13.211Z,37
2023-03-22T11:14:29.504Z,42
2023-03-22T11:19:45.890Z,40
2023-03-22T11:25:01.929Z,43
2023-03-22T11:30:18.266Z,46
2023-03-22T11:35:35.186Z,30
2023-03-22T11:40:51.429Z,29
2023-03-22T11:46:08.315Z,93
2023-03-22T11:51:24.565Z,20
2023-03-22T11:56:40.801Z,18
2023-03-22T12:01:57.102Z,13
2023-03-22T12:07:13.108Z,39
2023-03-22T12:12:29.418Z,39
2023-03-22T12:17:45.814Z,24
2023-03-22T12:23:02.571Z,32
2023-03-22T12:28:18.848Z,26
2023-03-22T12:33:35.172Z,32
2023-03-22T12:38:51.421Z,30
2023-03-22T12:44:07.751Z,18
2023-03-22T12:49:24.577Z,28
2023-03-22T12:54:40.837Z,30
2023-03-22T12:59:57.172Z,24
2023-03-22T13:05:14.702Z,27
2023-03-22T13:10:30.986Z,23
2023-03-22T13:15:47.287Z,18
2023-03-22T13:21:03.552Z,25
2023-03-22T13:26:19.863Z,22
2023-03-22T13:31:36.226Z,31
2023-03-22T13:36:52.420Z,23
2023-03-22T13:42:08.761Z,23
2023-03-22T13:47:25.027Z,26
2023-03-22T13:52:41.317Z,23
2023-03-22T13:57:57.642Z,28
2023-03-22T14:03:14.699Z,29
2023-03-22T14:08:30.884Z,36
2023-03-22T14:13:47.025Z,41
2023-03-22T14:19:03.330Z,36
2023-03-22T14:55:58.032Z,21
2023-03-22T15:01:14.437Z,25
2023-03-22T15:06:30.726Z,18
2023-03-22T15:11:47.125Z,20
2023-03-22T15:17:04.943Z,23
2023-03-22T15:22:21.309Z,20
2023-03-22T15:27:37.705Z,21
2023-03-22T15:32:54.038Z,15
2023-03-22T15:38:10.407Z,19
2023-03-22T15:43:26.825Z,21
2023-03-22T15:48:43.173Z,26
2023-03-22T15:53:59.570Z,28
2023-03-22T15:59:15.956Z,26
2023-03-22T16:04:32.336Z,26
2023-03-22T16:09:48.733Z,27
2023-03-22T16:15:05.208Z,30
2023-03-22T16:20:21.304Z,30
2023-03-22T16:25:39.128Z,32
2023-03-22T16:30:54.292Z,32
2023-03-22T16:36:12.161Z,30
2023-03-22T16:41:27.334Z,31
2023-03-22T16:46:43.711Z,36
2023-03-22T16:52:00.716Z,40
2023-03-22T16:57:17.679Z,38
2023-03-22T17:02:34.119Z,35
2023-03-22T17:07:50.490Z,32
2023-03-22T17:13:06.891Z,38
2023-03-22T17:18:23.256Z,38
2023-03-22T17:23:40.172Z,41
2023-03-22T17:28:56.506Z,38
2023-03-22T17:34:12.675Z,49
2023-03-22T17:40:11.606Z,44
2023-03-22T17:44:45.697Z,43
2023-03-22T17:50:02.088Z,39
2023-03-22T17:55:24.544Z,42
2023-03-22T18:00:34.516Z,42
2023-03-22T18:05:50.676Z,44
2023-03-22T18:11:07.676Z,46
2023-03-22T18:16:23.860Z,49
2023-03-22T18:21:40.246Z,49
2023-03-22T18:27:10.398Z,46
2023-03-22T18:32:18.587Z,48
2023-03-22T18:37:29.412Z,52
2023-03-22T18:42:48.593Z,55
2023-03-22T18:48:03.434Z,58
2023-03-22T18:53:20.273Z,53
2023-03-22T18:58:36.655Z,54
2023-03-22T19:03:53.157Z,66
2023-03-22T19:09:09.332Z,64
2023-03-22T19:19:42.613Z,65
2023-03-22T19:24:59.654Z,65
2023-03-22T19:30:16.461Z,60
2023-03-22T19:35:33.089Z,66
2023-03-22T19:41:33.645Z,58
2023-03-22T19:46:06.095Z,55
2023-03-22T19:51:22.501Z,51
2023-03-22T19:56:38.694Z,51
2023-03-22T20:01:55.134Z,51
2023-03-22T20:07:11.785Z,49
2023-03-22T20:12:28.253Z,48
2023-03-22T20:17:44.666Z,47
2023-03-22T20:23:01.666Z,49
2023-03-22T20:28:18.682Z,55
2023-03-22T20:33:35.113Z,60
2023-03-22T20:38:51.517Z,53
2023-03-22T20:44:07.724Z,51
2023-03-22T20:49:24.002Z,54
2023-03-22T20:54:40.213Z,56
2023-03-22T20:59:56.397Z,57
2023-03-22T21:05:12.816Z,55
2023-03-22T21:10:29.270Z,52
2023-03-22T21:15:45.686Z,49
2023-03-22T21:21:02.069Z,48
2023-03-22T21:26:18.742Z,50
2023-03-22T21:31:35.125Z,43
2023-03-22T21:36:51.900Z,47
2023-03-22T21:42:08.556Z,44
2023-03-22T21:47:24.957Z,47
2023-03-22T21:52:41.363Z,44
2023-03-22T21:57:57.805Z,39
2023-03-22T22:03:14.751Z,46
2023-03-22T22:08:31.136Z,45
2023-03-22T22:13:47.587Z,41
2023-03-22T22:19:03.979Z,44
2023-03-22T22:24:20.369Z,39
2023-03-22T22:29:36.532Z,39
2023-03-22T22:34:52.928Z,43
2023-03-22T22:40:09.341Z,45
2023-03-22T22:45:25.783Z,37
2023-03-22T22:50:42.152Z,34
2023-03-22T22:55:58.763Z,32
2023-03-22T23:01:15.172Z,39
2023-03-22T23:06:31.548Z,35
2023-03-22T23:11:47.968Z,36
2023-03-22T23:17:04.397Z,32
2023-03-22T23:22:20.784Z,32
2023-03-22T23:27:37.195Z,30
2023-03-22T23:32:53.615Z,36
2023-03-22T23:38:09.992Z,33
2023-03-22T23:43:27.000Z,34
2023-03-22T23:48:43.368Z,38
2023-03-22T23:53:59.803Z,34
2023-03-22T23:59:16.218Z,33
